sensor_id;sensor_type;location;lat;lon;timestamp;temperature;humidity
3816;DHT22;1923;48.154;11.536;2022-11-15T08:49:48;15.40;99.40
3816;DHT22;1923;48.154;11.536;2022-11-15T08:52:16;17.40;97.20
3816;DHT22;1923;48.154;11.536;2022-11-15T08:54:44;17.30;97.00
3816;DHT22;1923;48.154;11.536;2022-11-15T08:57:13;17.10;96.60
3816;DHT22;1923;48.154;11.536;2022-11-15T08:59:41;17.30;96.10
3816;DHT22;1923;48.154;11.536;2022-11-15T09:02:11;18.20;95.00
3816;DHT22;1923;48.154;11.536;2022-11-15T09:04:40;19.30;93.40
3816;DHT22;1923;48.154;11.536;2022-11-15T09:07:11;20.60;92.30
3816;DHT22;1923;48.154;11.536;2022-11-15T09:09:40;21.50;89.80
3816;DHT22;1923;48.154;11.536;2022-11-15T09:12:07;22.20;86.60
3816;DHT22;1923;48.154;11.536;2022-11-15T09:14:36;22.50;83.80
3816;DHT22;1923;48.154;11.536;2022-11-15T09:17:06;22.30;82.40
3816;DHT22;1923;48.154;11.536;2022-11-15T09:19:35;21.90;81.20
3816;DHT22;1923;48.154;11.536;2022-11-15T09:22:05;21.10;82.20
3816;DHT22;1923;48.154;11.536;2022-11-15T09:24:35;20.80;81.20
3816;DHT22;1923;48.154;11.536;2022-11-15T09:27:03;20.70;80.50
3816;DHT22;1923;48.154;11.536;2022-11-15T09:29:31;20.20;83.20
3816;DHT22;1923;48.154;11.536;2022-11-15T09:32:00;19.90;83.80
3816;DHT22;1923;48.154;11.536;2022-11-15T09:34:28;19.40;82.30
3816;DHT22;1923;48.154;11.536;2022-11-15T09:36:56;18.20;84.00
3816;DHT22;1923;48.154;11.536;2022-11-15T09:39:24;18.40;86.50
3816;DHT22;1923;48.154;11.536;2022-11-15T09:42:02;18.00;85.50
3816;DHT22;1923;48.154;11.536;2022-11-15T09:44:42;18.10;88.50
3816;DHT22;1923;48.154;11.536;2022-11-15T09:47:32;18.70;85.20
3816;DHT22;1923;48.154;11.536;2022-11-15T09:50:08;19.10;85.80
3816;DHT22;1923;48.154;11.536;2022-11-15T09:52:39;19.90;85.30
3816;DHT22;1923;48.154;11.536;2022-11-15T09:55:10;19.90;81.30
3816;DHT22;1923;48.154;11.536;2022-11-15T09:57:50;19.80;83.30
3816;DHT22;1923;48.154;11.536;2022-11-15T10:00:22;19.80;82.40
3816;DHT22;1923;48.154;11.536;2022-11-15T10:03:14;20.30;81.20
3816;DHT22;1923;48.154;11.536;2022-11-15T10:05:45;20.90;80.60
3816;DHT22;1923;48.154;11.536;2022-11-15T10:08:25;21.90;78.30
3816;DHT22;1923;48.154;11.536;2022-11-15T10:10:58;22.10;77.80
3816;DHT22;1923;48.154;11.536;2022-11-15T10:13:49;22.10;77.30
3816;DHT22;1923;48.154;11.536;2022-11-15T10:19:18;22.20;76.40
3816;DHT22;1923;48.154;11.536;2022-11-15T10:21:56;22.20;75.70
3816;DHT22;1923;48.154;11.536;2022-11-15T10:24:30;23.50;73.60
3816;DHT22;1923;48.154;11.536;2022-11-15T10:27:03;24.00;72.60
3816;DHT22;1923;48.154;11.536;2022-11-15T10:29:35;24.50;71.60
3816;DHT22;1923;48.154;11.536;2022-11-15T10:32:04;24.90;69.50
3816;DHT22;1923;48.154;11.536;2022-11-15T10:34:36;26.10;67.70
3816;DHT22;1923;48.154;11.536;2022-11-15T10:37:04;26.40;65.40
3816;DHT22;1923;48.154;11.536;2022-11-15T10:39:32;25.20;64.80
3816;DHT22;1923;48.154;11.536;2022-11-15T10:42:15;24.70;65.70
3816;DHT22;1923;48.154;11.536;2022-11-15T10:44:45;24.50;65.40
3816;DHT22;1923;48.154;11.536;2022-11-15T10:47:34;24.00;65.60
3816;DHT22;1923;48.154;11.536;2022-11-15T10:50:24;24.50;64.50
3816;DHT22;1923;48.154;11.536;2022-11-15T10:52:54;24.50;64.00
3816;DHT22;1923;48.154;11.536;2022-11-15T10:55:24;24.60;64.30
3816;DHT22;1923;48.154;11.536;2022-11-15T10:57:55;24.30;63.70
3816;DHT22;1923;48.154;11.536;2022-11-15T11:00:31;24.10;63.40
3816;DHT22;1923;48.154;11.536;2022-11-15T11:03:01;24.40;63.10
3816;DHT22;1923;48.154;11.536;2022-11-15T11:05:31;24.00;63.90
3816;DHT22;1923;48.154;11.536;2022-11-15T11:08:22;22.80;63.80
3816;DHT22;1923;48.154;11.536;2022-11-15T11:10:55;20.80;66.00
3816;DHT22;1923;48.154;11.536;2022-11-15T11:13:30;19.50;68.80
3816;DHT22;1923;48.154;11.536;2022-11-15T11:16:15;18.20;72.40
3816;DHT22;1923;48.154;11.536;2022-11-15T11:18:52;17.00;74.30
3816;DHT22;1923;48.154;11.536;2022-11-15T11:21:30;16.30;77.80
3816;DHT22;1923;48.154;11.536;2022-11-15T11:24:10;16.00;79.30
3816;DHT22;1923;48.154;11.536;2022-11-15T11:26:46;15.60;81.90
3816;DHT22;1923;48.154;11.536;2022-11-15T11:29:36;15.30;82.60
3816;DHT22;1923;48.154;11.536;2022-11-15T11:32:23;15.10;83.60
3816;DHT22;1923;48.154;11.536;2022-11-15T11:34:59;15.00;84.80
3816;DHT22;1923;48.154;11.536;2022-11-15T11:37:35;14.70;85.00
3816;DHT22;1923;48.154;11.536;2022-11-15T11:40:16;14.80;86.70
3816;DHT22;1923;48.154;11.536;2022-11-15T11:42:54;14.60;85.20
3816;DHT22;1923;48.154;11.536;2022-11-15T11:45:42;14.60;86.60
3816;DHT22;1923;48.154;11.536;2022-11-15T11:48:23;14.40;87.00
3816;DHT22;1923;48.154;11.536;2022-11-15T11:51:01;14.30;88.00
3816;DHT22;1923;48.154;11.536;2022-11-15T11:53:35;14.30;88.10
3816;DHT22;1923;48.154;11.536;2022-11-15T11:56:13;14.40;89.10
3816;DHT22;1923;48.154;11.536;2022-11-15T11:58:45;14.40;89.90
3816;DHT22;1923;48.154;11.536;2022-11-15T12:01:17;14.40;90.40
3816;DHT22;1923;48.154;11.536;2022-11-15T12:03:53;14.30;90.40
3816;DHT22;1923;48.154;11.536;2022-11-15T12:06:30;14.20;90.90
3816;DHT22;1923;48.154;11.536;2022-11-15T12:09:02;14.30;90.00
3816;DHT22;1923;48.154;11.536;2022-11-15T12:11:37;14.30;90.60
3816;DHT22;1923;48.154;11.536;2022-11-15T12:14:16;14.30;90.30
3816;DHT22;1923;48.154;11.536;2022-11-15T12:16:47;14.30;90.00
3816;DHT22;1923;48.154;11.536;2022-11-15T12:19:16;14.30;89.50
3816;DHT22;1923;48.154;11.536;2022-11-15T12:21:47;14.20;90.00
3816;DHT22;1923;48.154;11.536;2022-11-15T12:24:19;14.20;90.10
3816;DHT22;1923;48.154;11.536;2022-11-15T12:26:52;14.20;90.40
3816;DHT22;1923;48.154;11.536;2022-11-15T12:29:25;14.20;90.70
3816;DHT22;1923;48.154;11.536;2022-11-15T12:31:56;14.10;90.90
3816;DHT22;1923;48.154;11.536;2022-11-15T12:34:46;14.20;90.70
3816;DHT22;1923;48.154;11.536;2022-11-15T12:40:35;14.10;91.60
3816;DHT22;1923;48.154;11.536;2022-11-15T12:46:14;14.30;91.30
3816;DHT22;1923;48.154;11.536;2022-11-15T12:48:52;14.30;91.40
3816;DHT22;1923;48.154;11.536;2022-11-15T12:54:54;14.40;91.90
3816;DHT22;1923;48.154;11.536;2022-11-15T12:57:32;14.40;91.90
3816;DHT22;1923;48.154;11.536;2022-11-15T13:00:05;14.40;92.00
3816;DHT22;1923;48.154;11.536;2022-11-15T13:03:18;14.40;92.10
3816;DHT22;1923;48.154;11.536;2022-11-15T13:06:04;14.30;92.10
3816;DHT22;1923;48.154;11.536;2022-11-15T13:08:52;14.50;92.50
3816;DHT22;1923;48.154;11.536;2022-11-15T13:11:51;14.50;92.50
3816;DHT22;1923;48.154;11.536;2022-11-15T13:14:43;14.60;92.70
3816;DHT22;1923;48.154;11.536;2022-11-15T13:17:27;14.60;92.70
3816;DHT22;1923;48.154;11.536;2022-11-15T13:20:16;14.70;92.90
3816;DHT22;1923;48.154;11.536;2022-11-15T13:22:46;14.70;93.20
3816;DHT22;1923;48.154;11.536;2022-11-15T13:28:22;14.60;93.00
3816;DHT22;1923;48.154;11.536;2022-11-15T13:30:55;14.50;93.40
3816;DHT22;1923;48.154;11.536;2022-11-15T13:33:25;14.60;93.40
3816;DHT22;1923;48.154;11.536;2022-11-15T13:36:05;14.70;93.20
3816;DHT22;1923;48.154;11.536;2022-11-15T13:38:35;14.60;93.50
3816;DHT22;1923;48.154;11.536;2022-11-15T13:41:17;14.70;93.60
3816;DHT22;1923;48.154;11.536;2022-11-15T13:43:47;14.60;93.70
3816;DHT22;1923;48.154;11.536;2022-11-15T13:46:17;14.70;93.60
3816;DHT22;1923;48.154;11.536;2022-11-15T13:48:50;14.70;93.50
3816;DHT22;1923;48.154;11.536;2022-11-15T13:51:21;14.70;93.80
3816;DHT22;1923;48.154;11.536;2022-11-15T13:53:54;14.80;93.70
3816;DHT22;1923;48.154;11.536;2022-11-15T13:56:25;14.70;93.90
3816;DHT22;1923;48.154;11.536;2022-11-15T13:58:55;14.80;95.80
3816;DHT22;1923;48.154;11.536;2022-11-15T14:01:30;14.80;96.20
3816;DHT22;1923;48.154;11.536;2022-11-15T14:04:00;14.70;96.50
3816;DHT22;1923;48.154;11.536;2022-11-15T14:06:29;14.70;96.70
3816;DHT22;1923;48.154;11.536;2022-11-15T14:11:51;14.60;97.10
3816;DHT22;1923;48.154;11.536;2022-11-15T14:14:21;14.70;97.20
3816;DHT22;1923;48.154;11.536;2022-11-15T14:16:51;14.70;97.30
3816;DHT22;1923;48.154;11.536;2022-11-15T14:19:37;14.70;97.60
3816;DHT22;1923;48.154;11.536;2022-11-15T14:22:11;14.60;97.70
3816;DHT22;1923;48.154;11.536;2022-11-15T14:24:41;14.50;97.50
3816;DHT22;1923;48.154;11.536;2022-11-15T14:27:22;14.50;97.50
3816;DHT22;1923;48.154;11.536;2022-11-15T14:29:50;14.50;97.60
3816;DHT22;1923;48.154;11.536;2022-11-15T14:32:21;14.50;97.80
3816;DHT22;1923;48.154;11.536;2022-11-15T14:34:53;14.60;98.50
3816;DHT22;1923;48.154;11.536;2022-11-15T14:37:23;14.50;98.40
3816;DHT22;1923;48.154;11.536;2022-11-15T14:39:53;14.50;99.50
3816;DHT22;1923;48.154;11.536;2022-11-15T14:42:23;14.50;99.80
3816;DHT22;1923;48.154;11.536;2022-11-15T14:44:51;14.50;99.90
3816;DHT22;1923;48.154;11.536;2022-11-15T14:47:20;14.40;99.90
3816;DHT22;1923;48.154;11.536;2022-11-15T14:49:48;14.20;99.90
3816;DHT22;1923;48.154;11.536;2022-11-15T14:52:24;14.20;99.90
3816;DHT22;1923;48.154;11.536;2022-11-15T14:54:59;14.10;99.90
3816;DHT22;1923;48.154;11.536;2022-11-15T14:57:29;14.00;99.90
3816;DHT22;1923;48.154;11.536;2022-11-15T14:59:58;14.00;99.90
3816;DHT22;1923;48.154;11.536;2022-11-15T15:02:26;13.80;99.90
3816;DHT22;1923;48.154;11.536;2022-11-15T15:04:55;13.80;99.90
3816;DHT22;1923;48.154;11.536;2022-11-15T15:07:27;13.70;99.90
3816;DHT22;1923;48.154;11.536;2022-11-15T15:09:55;13.70;99.90
3816;DHT22;1923;48.154;11.536;2022-11-15T15:12:45;13.60;99.90
3816;DHT22;1923;48.154;11.536;2022-11-15T15:15:15;13.40;99.90
3816;DHT22;1923;48.154;11.536;2022-11-15T15:17:44;13.40;99.90
3816;DHT22;1923;48.154;11.536;2022-11-15T15:20:11;13.30;99.90
3816;DHT22;1923;48.154;11.536;2022-11-15T15:22:40;13.30;99.90
3816;DHT22;1923;48.154;11.536;2022-11-15T15:25:21;13.10;99.90
3816;DHT22;1923;48.154;11.536;2022-11-15T15:27:51;13.10;99.90
3816;DHT22;1923;48.154;11.536;2022-11-15T15:30:19;13.00;99.90
3816;DHT22;1923;48.154;11.536;2022-11-15T15:32:48;12.90;99.90
3816;DHT22;1923;48.154;11.536;2022-11-15T15:35:17;12.80;99.90
3816;DHT22;1923;48.154;11.536;2022-11-15T15:37:46;12.80;99.90
3816;DHT22;1923;48.154;11.536;2022-11-15T15:40:17;12.70;99.90
3816;DHT22;1923;48.154;11.536;2022-11-15T15:42:47;12.70;99.90
3816;DHT22;1923;48.154;11.536;2022-11-15T15:45:17;12.60;99.90
3816;DHT22;1923;48.154;11.536;2022-11-15T15:47:46;12.60;99.90
3816;DHT22;1923;48.154;11.536;2022-11-15T15:50:22;12.60;99.90
3816;DHT22;1923;48.154;11.536;2022-11-15T15:52:51;12.60;99.90
3816;DHT22;1923;48.154;11.536;2022-11-15T15:55:20;12.40;99.90
3816;DHT22;1923;48.154;11.536;2022-11-15T15:57:48;12.40;99.90
3816;DHT22;1923;48.154;11.536;2022-11-15T16:00:19;12.30;99.90
3816;DHT22;1923;48.154;11.536;2022-11-15T16:02:47;12.30;99.90
3816;DHT22;1923;48.154;11.536;2022-11-15T16:05:15;12.20;99.90
3816;DHT22;1923;48.154;11.536;2022-11-15T16:07:44;12.10;99.90
3816;DHT22;1923;48.154;11.536;2022-11-15T16:10:24;12.10;99.90
3816;DHT22;1923;48.154;11.536;2022-11-15T16:12:54;12.00;99.90
3816;DHT22;1923;48.154;11.536;2022-11-15T16:15:25;12.00;99.90
3816;DHT22;1923;48.154;11.536;2022-11-15T16:17:54;12.00;99.90
3816;DHT22;1923;48.154;11.536;2022-11-15T16:20:34;12.00;99.90
3816;DHT22;1923;48.154;11.536;2022-11-15T16:23:04;11.90;99.90
3816;DHT22;1923;48.154;11.536;2022-11-15T16:25:40;11.90;99.90
3816;DHT22;1923;48.154;11.536;2022-11-15T16:28:18;11.90;99.90
3816;DHT22;1923;48.154;11.536;2022-11-15T16:30:48;11.90;99.90
3816;DHT22;1923;48.154;11.536;2022-11-15T16:33:22;11.90;99.90
3816;DHT22;1923;48.154;11.536;2022-11-15T16:35:51;12.00;99.90
3816;DHT22;1923;48.154;11.536;2022-11-15T16:38:19;12.00;99.90
3816;DHT22;1923;48.154;11.536;2022-11-15T16:40:47;12.00;99.90
3816;DHT22;1923;48.154;11.536;2022-11-15T16:43:15;12.00;99.90
3816;DHT22;1923;48.154;11.536;2022-11-15T16:45:43;11.90;99.90
3816;DHT22;1923;48.154;11.536;2022-11-15T16:48:22;12.00;99.90
3816;DHT22;1923;48.154;11.536;2022-11-15T16:50:51;12.00;99.90
3816;DHT22;1923;48.154;11.536;2022-11-15T16:53:21;12.00;99.90
3816;DHT22;1923;48.154;11.536;2022-11-15T16:55:49;11.90;99.90
3816;DHT22;1923;48.154;11.536;2022-11-15T16:58:17;11.90;99.90
3816;DHT22;1923;48.154;11.536;2022-11-15T17:00:49;11.90;99.90
3816;DHT22;1923;48.154;11.536;2022-11-15T17:03:19;11.90;99.90
3816;DHT22;1923;48.154;11.536;2022-11-15T17:05:47;11.80;99.90
3816;DHT22;1923;48.154;11.536;2022-11-15T17:08:15;11.80;99.90
3816;DHT22;1923;48.154;11.536;2022-11-15T17:10:44;11.90;99.90
3816;DHT22;1923;48.154;11.536;2022-11-15T17:13:13;11.90;99.90
3816;DHT22;1923;48.154;11.536;2022-11-15T17:15:41;12.00;99.90
3816;DHT22;1923;48.154;11.536;2022-11-15T17:18:10;12.00;99.90
3816;DHT22;1923;48.154;11.536;2022-11-15T17:20:41;12.10;99.90
3816;DHT22;1923;48.154;11.536;2022-11-15T17:23:12;12.00;99.90
3816;DHT22;1923;48.154;11.536;2022-11-15T17:25:41;11.90;99.90
3816;DHT22;1923;48.154;11.536;2022-11-15T17:28:09;11.90;99.90
3816;DHT22;1923;48.154;11.536;2022-11-15T17:30:40;11.80;99.90
3816;DHT22;1923;48.154;11.536;2022-11-15T17:33:08;11.80;99.90
3816;DHT22;1923;48.154;11.536;2022-11-15T17:35:36;11.70;99.90
3816;DHT22;1923;48.154;11.536;2022-11-15T17:38:06;11.70;99.90
3816;DHT22;1923;48.154;11.536;2022-11-15T17:40:34;11.70;99.90
3816;DHT22;1923;48.154;11.536;2022-11-15T17:43:04;11.70;99.90
3816;DHT22;1923;48.154;11.536;2022-11-15T17:45:32;11.60;99.90
3816;DHT22;1923;48.154;11.536;2022-11-15T17:48:00;11.60;99.90
3816;DHT22;1923;48.154;11.536;2022-11-15T17:50:28;11.50;99.90
3816;DHT22;1923;48.154;11.536;2022-11-15T17:52:58;11.50;99.90
3816;DHT22;1923;48.154;11.536;2022-11-15T17:55:27;11.50;99.90
3816;DHT22;1923;48.154;11.536;2022-11-15T17:57:55;11.40;99.90
3816;DHT22;1923;48.154;11.536;2022-11-15T18:00:23;11.50;99.90
3816;DHT22;1923;48.154;11.536;2022-11-15T18:02:51;11.50;99.90
3816;DHT22;1923;48.154;11.536;2022-11-15T18:05:19;11.40;99.90
3816;DHT22;1923;48.154;11.536;2022-11-15T18:07:47;11.50;99.90
3816;DHT22;1923;48.154;11.536;2022-11-15T18:10:16;11.40;99.90
3816;DHT22;1923;48.154;11.536;2022-11-15T18:12:45;11.50;99.90
3816;DHT22;1923;48.154;11.536;2022-11-15T18:15:13;11.50;99.90
3816;DHT22;1923;48.154;11.536;2022-11-15T18:17:41;11.40;99.90
3816;DHT22;1923;48.154;11.536;2022-11-15T18:20:10;11.40;99.90
3816;DHT22;1923;48.154;11.536;2022-11-15T18:22:38;11.30;99.90
3816;DHT22;1923;48.154;11.536;2022-11-15T18:25:07;11.30;99.90
3816;DHT22;1923;48.154;11.536;2022-11-15T18:27:35;11.20;99.90
3816;DHT22;1923;48.154;11.536;2022-11-15T18:30:06;11.20;99.90
3816;DHT22;1923;48.154;11.536;2022-11-15T18:32:34;11.20;99.90
3816;DHT22;1923;48.154;11.536;2022-11-15T18:35:03;11.20;99.90
3816;DHT22;1923;48.154;11.536;2022-11-15T18:37:32;11.10;99.90
3816;DHT22;1923;48.154;11.536;2022-11-15T18:40:00;11.10;99.90
3816;DHT22;1923;48.154;11.536;2022-11-15T18:42:28;11.20;99.90
3816;DHT22;1923;48.154;11.536;2022-11-15T18:44:58;11.30;99.90
3816;DHT22;1923;48.154;11.536;2022-11-15T18:47:28;11.30;99.90
3816;DHT22;1923;48.154;11.536;2022-11-15T18:49:57;11.30;99.90
3816;DHT22;1923;48.154;11.536;2022-11-15T18:52:25;11.30;99.90
3816;DHT22;1923;48.154;11.536;2022-11-15T18:54:53;11.20;99.90
3816;DHT22;1923;48.154;11.536;2022-11-15T18:57:21;11.20;99.90
3816;DHT22;1923;48.154;11.536;2022-11-15T18:59:50;11.20;99.90
3816;DHT22;1923;48.154;11.536;2022-11-15T19:02:18;11.30;99.90
3816;DHT22;1923;48.154;11.536;2022-11-15T19:04:47;11.20;99.90
3816;DHT22;1923;48.154;11.536;2022-11-15T19:07:15;11.30;99.90
3816;DHT22;1923;48.154;11.536;2022-11-15T19:09:43;11.10;99.90
3816;DHT22;1923;48.154;11.536;2022-11-15T19:12:12;11.20;99.90
3816;DHT22;1923;48.154;11.536;2022-11-15T19:14:40;11.20;99.90
3816;DHT22;1923;48.154;11.536;2022-11-15T19:17:08;11.00;99.90
3816;DHT22;1923;48.154;11.536;2022-11-15T19:19:36;11.10;99.90
3816;DHT22;1923;48.154;11.536;2022-11-15T19:22:05;11.10;99.90
3816;DHT22;1923;48.154;11.536;2022-11-15T19:24:33;11.10;99.90
3816;DHT22;1923;48.154;11.536;2022-11-15T19:27:01;11.30;99.90
3816;DHT22;1923;48.154;11.536;2022-11-15T19:29:29;11.10;99.90
3816;DHT22;1923;48.154;11.536;2022-11-15T19:31:57;11.00;99.90
3816;DHT22;1923;48.154;11.536;2022-11-15T19:34:26;11.10;99.90
3816;DHT22;1923;48.154;11.536;2022-11-15T19:36:54;11.00;99.90
3816;DHT22;1923;48.154;11.536;2022-11-15T19:39:23;11.00;99.90
3816;DHT22;1923;48.154;11.536;2022-11-15T19:41:51;10.90;99.90
3816;DHT22;1923;48.154;11.536;2022-11-15T19:44:19;10.80;99.90
3816;DHT22;1923;48.154;11.536;2022-11-15T19:46:48;10.80;99.90
3816;DHT22;1923;48.154;11.536;2022-11-15T19:49:16;10.90;99.90
3816;DHT22;1923;48.154;11.536;2022-11-15T19:51:44;11.00;99.90
3816;DHT22;1923;48.154;11.536;2022-11-15T19:54:14;11.00;99.90
3816;DHT22;1923;48.154;11.536;2022-11-15T19:56:44;10.80;99.90
3816;DHT22;1923;48.154;11.536;2022-11-15T19:59:12;10.70;99.90
3816;DHT22;1923;48.154;11.536;2022-11-15T20:01:40;10.80;99.90
3816;DHT22;1923;48.154;11.536;2022-11-15T20:04:08;10.80;99.90
3816;DHT22;1923;48.154;11.536;2022-11-15T20:06:39;10.80;99.90
3816;DHT22;1923;48.154;11.536;2022-11-15T20:09:10;10.80;99.90
3816;DHT22;1923;48.154;11.536;2022-11-15T20:11:38;10.80;99.90
3816;DHT22;1923;48.154;11.536;2022-11-15T20:14:08;10.90;99.90
3816;DHT22;1923;48.154;11.536;2022-11-15T20:16:38;10.90;99.90
3816;DHT22;1923;48.154;11.536;2022-11-15T20:19:07;10.90;99.90
3816;DHT22;1923;48.154;11.536;2022-11-15T20:21:35;11.00;99.90
3816;DHT22;1923;48.154;11.536;2022-11-15T20:24:04;11.00;99.90
3816;DHT22;1923;48.154;11.536;2022-11-15T20:26:32;10.90;99.90
3816;DHT22;1923;48.154;11.536;2022-11-15T20:29:01;10.90;99.90
3816;DHT22;1923;48.154;11.536;2022-11-15T20:31:31;10.80;99.90
3816;DHT22;1923;48.154;11.536;2022-11-15T20:33:59;10.90;99.90
3816;DHT22;1923;48.154;11.536;2022-11-15T20:36:27;10.90;99.90
3816;DHT22;1923;48.154;11.536;2022-11-15T20:38:56;10.90;99.90
3816;DHT22;1923;48.154;11.536;2022-11-15T20:41:25;10.70;99.90
3816;DHT22;1923;48.154;11.536;2022-11-15T20:43:54;10.80;99.90
3816;DHT22;1923;48.154;11.536;2022-11-15T20:46:22;10.80;99.90
3816;DHT22;1923;48.154;11.536;2022-11-15T20:48:52;10.90;99.90
3816;DHT22;1923;48.154;11.536;2022-11-15T20:51:20;10.90;99.90
3816;DHT22;1923;48.154;11.536;2022-11-15T20:53:48;10.80;99.90
3816;DHT22;1923;48.154;11.536;2022-11-15T20:56:18;10.90;99.90
3816;DHT22;1923;48.154;11.536;2022-11-15T20:58:46;10.80;99.90
3816;DHT22;1923;48.154;11.536;2022-11-15T21:01:17;10.90;99.90
3816;DHT22;1923;48.154;11.536;2022-11-15T21:03:49;11.00;99.90
3816;DHT22;1923;48.154;11.536;2022-11-15T21:06:43;10.80;99.90
3816;DHT22;1923;48.154;11.536;2022-11-15T21:09:14;10.70;99.90
3816;DHT22;1923;48.154;11.536;2022-11-15T21:12:00;10.70;99.90
3816;DHT22;1923;48.154;11.536;2022-11-15T21:14:40;10.80;99.90
3816;DHT22;1923;48.154;11.536;2022-11-15T21:17:34;10.90;99.90
3816;DHT22;1923;48.154;11.536;2022-11-15T21:20:05;10.80;99.90
3816;DHT22;1923;48.154;11.536;2022-11-15T21:22:58;10.80;99.90
3816;DHT22;1923;48.154;11.536;2022-11-15T21:25:26;10.70;99.90
3816;DHT22;1923;48.154;11.536;2022-11-15T21:27:55;10.80;99.90
3816;DHT22;1923;48.154;11.536;2022-11-15T21:30:23;10.90;99.90
3816;DHT22;1923;48.154;11.536;2022-11-15T21:32:51;10.80;99.90
3816;DHT22;1923;48.154;11.536;2022-11-15T21:35:19;10.90;99.90
3816;DHT22;1923;48.154;11.536;2022-11-15T21:37:47;10.90;99.90
3816;DHT22;1923;48.154;11.536;2022-11-15T21:40:24;10.80;99.90
3816;DHT22;1923;48.154;11.536;2022-11-15T21:42:53;10.90;99.90
3816;DHT22;1923;48.154;11.536;2022-11-15T21:45:21;10.90;99.90
3816;DHT22;1923;48.154;11.536;2022-11-15T21:47:49;10.90;99.90
3816;DHT22;1923;48.154;11.536;2022-11-15T21:50:17;10.70;99.90
3816;DHT22;1923;48.154;11.536;2022-11-15T21:52:45;10.90;99.90
